createdAt,value
2022-09-03T00:00:55.144Z,15.60
2022-09-03T00:03:33.519Z,15.60
2022-09-03T00:06:16.805Z,15.60
2022-09-03T00:09:09.425Z,15.50
2022-09-03T00:11:55.741Z,15.60
2022-09-03T00:14:34.385Z,15.50
2022-09-03T00:17:05.758Z,15.50
2022-09-03T00:19:37.372Z,15.40
2022-09-03T00:22:13.241Z,15.40
2022-09-03T00:24:43.940Z,15.40
2022-09-03T00:27:19.293Z,15.40
2022-09-03T00:29:52.293Z,15.30
2022-09-03T00:32:26.385Z,15.30
2022-09-03T00:35:00.954Z,15.40
2022-09-03T00:37:28.704Z,15.30
2022-09-03T00:40:00.852Z,15.30
2022-09-03T00:42:47.481Z,15.40
2022-09-03T00:45:28.279Z,15.30
2022-09-03T00:48:28.032Z,15.40
2022-09-03T00:51:21.864Z,15.30
2022-09-03T00:54:00.329Z,15.30
2022-09-03T00:56:33.124Z,15.30
2022-09-03T00:59:25.217Z,15.30
2022-09-03T01:02:10.825Z,15.20
2022-09-03T01:05:04.382Z,15.30
2022-09-03T01:07:59.063Z,15.10
2022-09-03T01:10:48.093Z,15.10
2022-09-03T01:13:18.093Z,15.00
2022-09-03T01:15:59.680Z,15.00
2022-09-03T01:18:39.003Z,14.90
2022-09-03T01:21:14.020Z,15.00
2022-09-03T01:23:48.610Z,14.90
2022-09-03T01:26:41.994Z,14.90
2022-09-03T01:29:32.440Z,14.80
2022-09-03T01:32:15.762Z,14.80
2022-09-03T01:35:02.416Z,14.70
2022-09-03T01:37:31.838Z,14.70
2022-09-03T01:40:05.898Z,14.70
2022-09-03T01:42:37.481Z,14.80
2022-09-03T01:45:07.627Z,14.70
2022-09-03T01:47:51.472Z,14.70
2022-09-03T01:50:42.825Z,14.60
2022-09-03T01:53:18.780Z,14.60
2022-09-03T01:56:07.942Z,14.60
2022-09-03T01:58:54.965Z,14.70
2022-09-03T02:01:36.785Z,14.70
2022-09-03T02:04:18.417Z,14.70
2022-09-03T02:06:46.328Z,14.60
2022-09-03T02:09:13.106Z,14.50
2022-09-03T02:11:41.146Z,14.50
2022-09-03T02:14:08.381Z,14.50
2022-09-03T02:16:35.224Z,14.40
2022-09-03T02:19:05.876Z,14.50
2022-09-03T02:21:36.936Z,14.50
2022-09-03T02:24:05.111Z,14.50
2022-09-03T02:26:32.058Z,14.50
2022-09-03T02:28:59.178Z,14.30
2022-09-03T02:31:25.983Z,14.30
2022-09-03T02:33:52.851Z,14.20
2022-09-03T02:36:26.289Z,14.20
2022-09-03T02:38:54.218Z,14.20
2022-09-03T02:41:20.976Z,14.10
2022-09-03T02:44:16.503Z,14.10
2022-09-03T02:46:47.505Z,14.10
2022-09-03T02:49:14.457Z,14.20
2022-09-03T02:51:43.336Z,14.10
2022-09-03T02:54:11.253Z,14.00
2022-09-03T02:56:38.430Z,14.10
2022-09-03T02:59:07.060Z,14.10
2022-09-03T03:01:34.842Z,14.10
2022-09-03T03:04:01.636Z,14.00
2022-09-03T03:06:28.486Z,14.10
2022-09-03T03:08:57.108Z,14.00
2022-09-03T03:11:25.308Z,14.00
2022-09-03T03:13:52.306Z,14.00
2022-09-03T03:16:19.513Z,14.10
2022-09-03T03:18:46.345Z,14.10
2022-09-03T03:21:15.592Z,14.10
2022-09-03T03:23:43.009Z,14.20
2022-09-03T03:26:12.761Z,14.10
2022-09-03T03:28:40.157Z,14.10
2022-09-03T03:31:09.474Z,14.10
2022-09-03T03:33:36.827Z,14.00
2022-09-03T03:36:08.579Z,13.90
2022-09-03T03:38:36.187Z,14.10
2022-09-03T03:41:11.306Z,13.90
2022-09-03T03:43:38.376Z,14.00
2022-09-03T03:46:05.382Z,13.90
2022-09-03T03:48:33.120Z,13.90
2022-09-03T03:51:07.416Z,13.90
2022-09-03T03:53:35.641Z,14.00
2022-09-03T03:56:05.252Z,14.00
2022-09-03T03:58:33.260Z,13.90
2022-09-03T04:01:08.771Z,13.80
2022-09-03T04:03:36.787Z,13.80
2022-09-03T04:06:04.943Z,13.80
2022-09-03T04:08:38.177Z,13.80
2022-09-03T04:11:07.303Z,13.70
2022-09-03T04:13:36.256Z,13.60
2022-09-03T04:16:09.277Z,13.60
2022-09-03T04:18:37.235Z,13.60
2022-09-03T04:21:06.998Z,13.60
2022-09-03T04:23:35.560Z,13.50
2022-09-03T04:26:02.256Z,13.50
2022-09-03T04:28:29.316Z,13.50
2022-09-03T04:31:02.099Z,13.60
2022-09-03T04:33:30.726Z,13.50
2022-09-03T04:36:07.447Z,13.50
2022-09-03T04:38:36.536Z,13.50
2022-09-03T04:41:04.824Z,13.50
2022-09-03T04:43:31.878Z,13.50
2022-09-03T04:46:06.376Z,13.50
2022-09-03T04:48:34.361Z,13.60
2022-09-03T04:51:06.274Z,13.50
2022-09-03T04:53:34.487Z,13.50
2022-09-03T04:56:01.433Z,13.60
2022-09-03T04:58:28.216Z,13.60
2022-09-03T05:00:55.124Z,13.50
2022-09-03T05:03:22.133Z,13.60
2022-09-03T05:05:53.358Z,13.60
2022-09-03T05:08:21.333Z,13.60
2022-09-03T05:10:48.710Z,13.60
2022-09-03T05:13:18.050Z,13.60
2022-09-03T05:15:45.351Z,13.70
2022-09-03T05:18:12.351Z,13.70
2022-09-03T05:20:39.116Z,13.80
2022-09-03T05:23:05.879Z,13.80
2022-09-03T05:25:32.631Z,13.80
2022-09-03T05:28:00.042Z,13.80
2022-09-03T05:30:26.896Z,14.00
2022-09-03T05:32:53.849Z,14.00
2022-09-03T05:35:25.385Z,14.10
2022-09-03T05:37:56.033Z,14.10
2022-09-03T05:40:22.722Z,14.30
2022-09-03T05:42:57.484Z,14.40
2022-09-03T05:45:24.749Z,14.50
2022-09-03T05:47:51.558Z,14.60
2022-09-03T05:50:18.418Z,14.70
2022-09-03T05:52:45.145Z,14.80
2022-09-03T05:55:13.572Z,14.90
2022-09-03T05:57:43.381Z,14.90
2022-09-03T06:00:11.005Z,15.00
2022-09-03T06:02:39.076Z,15.10
2022-09-03T06:05:06.169Z,15.20
2022-09-03T06:07:34.177Z,15.30
2022-09-03T06:10:07.834Z,15.50
2022-09-03T06:12:36.594Z,15.50
2022-09-03T06:15:03.443Z,15.60
2022-09-03T06:17:30.099Z,15.70
2022-09-03T06:19:57.072Z,15.90
2022-09-03T06:22:25.410Z,16.00
2022-09-03T06:24:54.477Z,16.00
2022-09-03T06:27:21.259Z,16.10
2022-09-03T06:29:48.591Z,16.20
2022-09-03T06:32:15.520Z,16.40
2022-09-03T06:34:42.300Z,16.50
2022-09-03T06:37:08.993Z,16.60
2022-09-03T06:39:35.721Z,16.70
2022-09-03T06:42:02.438Z,16.90
2022-09-03T06:44:35.626Z,17.10
2022-09-03T06:47:02.406Z,17.20
2022-09-03T06:49:29.065Z,17.20
2022-09-03T06:51:55.753Z,17.60
2022-09-03T06:54:23.145Z,17.60
2022-09-03T06:56:50.535Z,17.90
2022-09-03T06:59:17.203Z,18.20
2022-09-03T07:01:46.149Z,18.80
2022-09-03T07:04:16.653Z,19.00
2022-09-03T07:06:44.208Z,19.30
2022-09-03T07:09:12.500Z,18.80
2022-09-03T07:11:46.793Z,19.10
2022-09-03T07:14:14.956Z,19.50
2022-09-03T07:16:42.994Z,19.40
2022-09-03T07:19:09.899Z,19.80
2022-09-03T07:21:37.391Z,20.30
2022-09-03T07:24:05.801Z,20.00
2022-09-03T07:26:38.555Z,20.60
2022-09-03T07:29:07.759Z,20.50
2022-09-03T07:31:37.533Z,20.70
2022-09-03T07:34:09.993Z,20.80
2022-09-03T07:36:42.734Z,20.70
2022-09-03T07:39:11.405Z,20.70
2022-09-03T07:41:38.706Z,20.70
2022-09-03T07:44:08.208Z,20.30
2022-09-03T07:46:37.813Z,20.50
2022-09-03T07:49:06.324Z,20.70
2022-09-03T07:51:35.862Z,21.00
2022-09-03T07:54:06.865Z,20.50
2022-09-03T07:56:35.722Z,20.70
2022-09-03T07:59:03.265Z,20.80
2022-09-03T08:01:33.854Z,20.90
2022-09-03T08:04:01.790Z,21.20
2022-09-03T08:06:30.461Z,21.70
2022-09-03T08:09:04.582Z,21.80
2022-09-03T08:11:36.674Z,21.90
2022-09-03T08:14:06.676Z,22.20
2022-09-03T08:16:48.338Z,21.60
2022-09-03T08:19:16.081Z,21.90
2022-09-03T08:21:42.908Z,21.70
2022-09-03T08:24:11.303Z,21.80
2022-09-03T08:26:47.680Z,22.40
2022-09-03T08:29:18.224Z,22.30
2022-09-03T08:31:45.112Z,22.20
2022-09-03T08:34:13.146Z,21.90
2022-09-03T08:36:43.116Z,21.80
2022-09-03T08:39:13.648Z,21.90
2022-09-03T08:41:55.358Z,21.90
2022-09-03T08:44:25.060Z,22.40
2022-09-03T08:46:53.746Z,22.30
2022-09-03T08:49:37.651Z,22.60
2022-09-03T08:52:14.600Z,22.20
2022-09-03T08:54:41.647Z,22.60
2022-09-03T08:57:09.416Z,23.00
2022-09-03T08:59:37.150Z,22.70
2022-09-03T09:02:25.726Z,22.80
2022-09-03T09:05:14.156Z,22.80
2022-09-03T09:08:04.662Z,22.90
2022-09-03T09:10:49.019Z,23.20
2022-09-03T09:13:30.739Z,23.20
2022-09-03T09:16:15.762Z,23.70
2022-09-03T09:19:01.858Z,23.20
2022-09-03T09:21:33.844Z,23.40
2022-09-03T09:24:04.419Z,23.60
2022-09-03T09:26:31.676Z,23.30
2022-09-03T09:29:10.267Z,23.30
2022-09-03T09:31:39.944Z,23.60
2022-09-03T09:34:08.426Z,23.30
2022-09-03T09:36:50.962Z,23.80
2022-09-03T09:39:17.919Z,24.10
2022-09-03T09:42:09.371Z,24.00
2022-09-03T09:44:40.755Z,24.10
2022-09-03T09:47:16.160Z,24.10
2022-09-03T09:49:46.012Z,24.20
2022-09-03T09:52:15.770Z,24.40
2022-09-03T09:54:47.979Z,24.60
2022-09-03T09:57:23.222Z,24.70
2022-09-03T10:00:01.405Z,24.80
2022-09-03T10:02:59.054Z,24.90
2022-09-03T10:05:30.633Z,25.00
2022-09-03T10:08:00.615Z,24.50
2022-09-03T10:10:29.171Z,24.60
2022-09-03T10:13:29.919Z,24.70
2022-09-03T10:16:20.132Z,24.60
2022-09-03T10:19:10.464Z,24.90
2022-09-03T10:21:56.053Z,24.60
2022-09-03T10:24:39.580Z,24.70
2022-09-03T10:27:12.125Z,25.00
2022-09-03T10:29:41.442Z,25.40
2022-09-03T10:32:29.075Z,25.10
2022-09-03T10:35:12.614Z,24.80
2022-09-03T10:38:04.595Z,25.00
2022-09-03T10:40:42.614Z,25.30
2022-09-03T10:43:34.805Z,25.30
2022-09-03T10:46:24.361Z,25.10
2022-09-03T10:49:09.348Z,25.80
2022-09-03T10:51:44.236Z,25.50
2022-09-03T10:54:42.312Z,25.60
2022-09-03T10:57:26.771Z,25.50
2022-09-03T11:00:12.930Z,25.30
2022-09-03T11:03:12.530Z,25.60
2022-09-03T11:06:02.944Z,25.70
2022-09-03T11:08:37.734Z,25.50
2022-09-03T11:11:43.525Z,25.60
2022-09-03T11:14:15.293Z,25.50
2022-09-03T11:17:09.380Z,25.80
2022-09-03T11:20:16.485Z,25.90
2022-09-03T11:22:46.003Z,25.50
2022-09-03T11:25:15.249Z,25.30
2022-09-03T11:27:41.907Z,24.80
2022-09-03T11:30:32.585Z,25.00
2022-09-03T11:33:06.576Z,25.10
2022-09-03T11:35:33.935Z,25.40
2022-09-03T11:38:21.120Z,25.60
2022-09-03T11:40:59.398Z,25.10
2022-09-03T11:43:32.629Z,25.00
2022-09-03T11:46:03.617Z,25.00
2022-09-03T11:48:46.921Z,24.90
2022-09-03T11:51:31.026Z,25.00
2022-09-03T11:54:01.270Z,25.10
2022-09-03T11:56:29.094Z,25.30
2022-09-03T11:59:23.481Z,25.20
2022-09-03T12:02:02.616Z,25.50
2022-09-03T12:04:44.389Z,26.10
2022-09-03T12:07:27.508Z,26.30
2022-09-03T12:10:13.148Z,26.80
2022-09-03T12:12:55.158Z,26.90
2022-09-03T12:15:35.607Z,26.70
2022-09-03T12:18:20.490Z,26.20
2022-09-03T12:21:11.486Z,26.10
2022-09-03T12:23:45.657Z,26.20
2022-09-03T12:26:16.992Z,26.60
2022-09-03T12:28:50.375Z,26.60
2022-09-03T12:31:21.599Z,26.50
2022-09-03T12:34:03.700Z,26.90
2022-09-03T12:36:42.029Z,26.90
2022-09-03T12:39:13.608Z,26.60
2022-09-03T12:42:06.477Z,27.00
2022-09-03T12:44:44.060Z,27.20
2022-09-03T12:50:13.142Z,26.70
2022-09-03T12:52:46.995Z,27.20
2022-09-03T12:55:31.712Z,26.60
2022-09-03T12:58:16.020Z,26.60
2022-09-03T13:00:50.534Z,26.80
2022-09-03T13:03:32.153Z,27.40
2022-09-03T13:06:10.672Z,27.50
2022-09-03T13:08:47.537Z,27.10
2022-09-03T13:11:18.463Z,27.30
2022-09-03T13:14:12.661Z,26.10
2022-09-03T13:16:45.185Z,25.60
2022-09-03T13:19:37.996Z,26.10
2022-09-03T13:22:37.813Z,26.40
2022-09-03T13:25:21.510Z,26.70
2022-09-03T13:28:04.640Z,26.60
2022-09-03T13:30:54.477Z,27.00
2022-09-03T13:33:23.715Z,26.70
2022-09-03T13:36:28.042Z,26.60
2022-09-03T13:39:05.915Z,27.30
2022-09-03T13:41:46.438Z,26.80
2022-09-03T13:44:26.943Z,27.00
2022-09-03T13:47:32.538Z,26.50
2022-09-03T13:50:22.489Z,26.60
2022-09-03T13:53:11.008Z,26.70
2022-09-03T13:55:47.442Z,26.40
2022-09-03T13:58:27.713Z,26.10
2022-09-03T14:01:10.151Z,25.80
2022-09-03T14:03:48.547Z,25.80
2022-09-03T14:06:25.269Z,25.80
2022-09-03T14:09:26.746Z,25.60
2022-09-03T14:12:19.719Z,25.60
2022-09-03T14:14:56.859Z,25.60
2022-09-03T14:18:02.517Z,25.60
2022-09-03T14:20:36.136Z,25.30
2022-09-03T14:23:24.053Z,25.60
2022-09-03T14:26:00.231Z,25.50
2022-09-03T14:28:44.367Z,25.70
2022-09-03T14:31:38.976Z,25.70
2022-09-03T14:34:37.383Z,25.60
2022-09-03T14:37:22.718Z,25.60
2022-09-03T14:40:10.872Z,25.50
2022-09-03T14:43:01.324Z,26.30
2022-09-03T14:45:54.329Z,26.80
2022-09-03T14:48:40.165Z,27.00
2022-09-03T14:51:19.689Z,27.00
2022-09-03T14:54:11.966Z,26.60
2022-09-03T14:56:54.627Z,27.10
2022-09-03T15:00:20.173Z,26.70
2022-09-03T15:03:15.347Z,27.20
2022-09-03T15:05:58.894Z,27.10
2022-09-03T15:08:40.892Z,27.10
2022-09-03T15:11:30.984Z,26.80
2022-09-03T15:14:13.144Z,26.70
2022-09-03T15:16:56.343Z,26.40
2022-09-03T15:19:44.676Z,26.70
2022-09-03T15:22:26.834Z,26.70
2022-09-03T15:25:18.275Z,26.20
2022-09-03T15:28:01.327Z,26.30
2022-09-03T15:30:55.956Z,26.80
2022-09-03T15:33:57.790Z,27.70
2022-09-03T15:36:38.929Z,27.70
2022-09-03T15:39:33.966Z,26.70
2022-09-03T15:42:10.314Z,26.60
2022-09-03T15:44:45.872Z,26.80
2022-09-03T15:47:44.772Z,26.40
2022-09-03T15:50:54.583Z,26.90
2022-09-03T15:53:36.482Z,26.20
2022-09-03T15:56:31.015Z,26.10
2022-09-03T15:59:13.204Z,26.40
2022-09-03T16:02:04.673Z,26.30
2022-09-03T16:04:50.495Z,26.00
2022-09-03T16:07:30.315Z,25.60
2022-09-03T16:10:25.349Z,25.50
2022-09-03T16:13:30.374Z,25.80
2022-09-03T16:16:05.318Z,25.80
2022-09-03T16:19:01.390Z,25.90
2022-09-03T16:21:42.334Z,25.50
2022-09-03T16:24:26.509Z,25.30
2022-09-03T16:27:24.013Z,25.10
2022-09-03T16:29:56.572Z,24.70
2022-09-03T16:32:42.561Z,24.40
2022-09-03T16:35:30.038Z,24.40
2022-09-03T16:38:08.175Z,24.40
2022-09-03T16:40:48.505Z,24.40
2022-09-03T16:43:41.614Z,24.20
2022-09-03T16:46:40.704Z,24.10
2022-09-03T16:49:10.177Z,24.10
2022-09-03T16:52:03.113Z,24.10
2022-09-03T16:55:08.584Z,24.10
2022-09-03T16:57:50.568Z,24.10
2022-09-03T17:00:21.302Z,24.10
2022-09-03T17:03:03.797Z,24.10
2022-09-03T17:05:45.398Z,23.90
2022-09-03T17:08:40.552Z,23.90
2022-09-03T17:11:28.863Z,23.70
2022-09-03T17:14:18.799Z,23.60
2022-09-03T17:17:11.441Z,23.50
2022-09-03T17:20:03.601Z,23.40
2022-09-03T17:22:42.552Z,23.40
2022-09-03T17:25:29.061Z,23.30
2022-09-03T17:28:31.390Z,23.20
2022-09-03T17:31:16.556Z,23.20
2022-09-03T17:34:07.664Z,23.10
2022-09-03T17:36:38.665Z,23.00
2022-09-03T17:39:21.316Z,22.80
2022-09-03T17:42:06.328Z,22.80
2022-09-03T17:44:47.061Z,22.70
2022-09-03T17:47:32.712Z,22.60
2022-09-03T17:50:11.618Z,22.60
2022-09-03T17:53:06.884Z,22.50
2022-09-03T17:55:38.611Z,22.40
2022-09-03T17:58:25.204Z,22.30
2022-09-03T18:01:13.570Z,22.30
2022-09-03T18:04:11.544Z,22.20
2022-09-03T18:06:42.045Z,22.10
2022-09-03T18:09:42.089Z,22.00
2022-09-03T18:12:34.361Z,22.00
2022-09-03T18:15:11.996Z,21.90
2022-09-03T18:17:51.493Z,21.80
2022-09-03T18:20:39.756Z,21.70
2022-09-03T18:23:36.219Z,21.70
2022-09-03T18:26:34.619Z,21.60
2022-09-03T18:29:24.687Z,21.60
2022-09-03T18:32:10.550Z,21.50
2022-09-03T18:34:56.486Z,21.40
2022-09-03T18:37:44.764Z,21.40
2022-09-03T18:40:40.785Z,21.40
2022-09-03T18:44:14.531Z,21.30
2022-09-03T18:48:01.955Z,21.30
2022-09-03T18:51:05.039Z,21.20
2022-09-03T18:54:16.634Z,21.10
2022-09-03T18:57:09.917Z,21.20
2022-09-03T19:00:20.307Z,21.10
2022-09-03T19:03:19.501Z,21.10
2022-09-03T19:06:35.093Z,21.00
2022-09-03T19:09:39.945Z,20.90
2022-09-03T19:12:59.244Z,20.80
2022-09-03T19:15:57.454Z,20.60
2022-09-03T19:19:13.852Z,20.50
2022-09-03T19:22:12.342Z,20.40
2022-09-03T19:24:57.746Z,20.40
2022-09-03T19:28:07.141Z,20.30
2022-09-03T19:31:22.843Z,20.10
2022-09-03T19:34:31.359Z,20.10
2022-09-03T19:37:46.281Z,20.00
2022-09-03T19:40:40.778Z,19.90
2022-09-03T19:43:36.683Z,19.80
2022-09-03T19:46:47.096Z,19.60
2022-09-03T19:49:44.094Z,19.60
2022-09-03T19:52:55.335Z,19.50
2022-09-03T19:55:45.200Z,19.50
2022-09-03T19:58:43.290Z,19.30
2022-09-03T20:01:30.390Z,19.30
2022-09-03T20:04:19.329Z,19.30
2022-09-03T20:07:05.582Z,19.20
2022-09-03T20:09:59.204Z,19.20
2022-09-03T20:12:31.043Z,19.10
2022-09-03T20:14:57.754Z,19.00
2022-09-03T20:17:43.958Z,19.00
2022-09-03T20:20:10.672Z,19.00
2022-09-03T20:22:42.829Z,18.90
2022-09-03T20:25:44.811Z,18.90
2022-09-03T20:28:37.647Z,18.80
2022-09-03T20:31:19.419Z,18.70
2022-09-03T20:34:12.359Z,18.70
2022-09-03T20:37:09.783Z,18.70
2022-09-03T20:39:39.337Z,18.70
2022-09-03T20:42:37.093Z,18.70
2022-09-03T20:45:22.563Z,18.70
2022-09-03T20:48:23.912Z,18.60
2022-09-03T20:50:50.919Z,18.50
2022-09-03T20:53:43.916Z,18.60
2022-09-03T20:56:24.812Z,18.50
2022-09-03T20:59:01.699Z,18.50
2022-09-03T21:05:32.011Z,18.50
2022-09-03T21:08:33.103Z,18.40
2022-09-03T21:19:30.752Z,18.30
2022-09-03T21:22:33.883Z,18.10
2022-09-03T21:25:08.235Z,18.20
2022-09-03T21:28:08.535Z,18.10
2022-09-03T21:30:40.677Z,18.20
2022-09-03T21:33:16.613Z,18.10
2022-09-03T21:35:53.416Z,18.00
2022-09-03T21:38:27.987Z,17.90
2022-09-03T21:41:23.070Z,17.90
2022-09-03T21:43:56.763Z,17.80
2022-09-03T21:47:18.646Z,17.70
2022-09-03T21:49:45.349Z,17.60
2022-09-03T21:52:17.252Z,17.50
2022-09-03T21:54:43.948Z,17.50
2022-09-03T21:57:22.099Z,17.50
2022-09-03T22:00:04.720Z,17.40
2022-09-03T22:02:40.368Z,17.30
2022-09-03T22:05:07.877Z,17.20
2022-09-03T22:08:02.288Z,17.10
2022-09-03T22:10:42.892Z,17.10
2022-09-03T22:13:30.969Z,17.00
2022-09-03T22:16:23.605Z,16.90
2022-09-03T22:18:50.756Z,16.90
2022-09-03T22:21:23.466Z,16.90
2022-09-03T22:24:04.052Z,16.90
2022-09-03T22:27:01.445Z,16.90
2022-09-03T22:29:44.988Z,16.90
2022-09-03T22:32:33.634Z,16.90
2022-09-03T22:35:12.891Z,16.80
2022-09-03T22:38:16.161Z,16.80
2022-09-03T22:40:53.042Z,16.80
2022-09-03T22:43:34.440Z,16.70
2022-09-03T22:46:10.454Z,16.70
2022-09-03T22:49:01.258Z,16.70
2022-09-03T22:51:32.699Z,16.60
2022-09-03T22:54:36.320Z,16.60
2022-09-03T22:57:04.582Z,16.60
2022-09-03T22:59:42.118Z,16.50
2022-09-03T23:02:15.235Z,16.60
2022-09-03T23:05:02.735Z,16.50
2022-09-03T23:07:53.609Z,16.50
2022-09-03T23:10:33.186Z,16.50
2022-09-03T23:13:17.302Z,16.40
2022-09-03T23:15:47.882Z,16.40
2022-09-03T23:18:19.564Z,16.30
2022-09-03T23:21:15.692Z,16.30
2022-09-03T23:23:47.097Z,16.20
2022-09-03T23:26:37.462Z,16.10
2022-09-03T23:29:10.399Z,16.10
2022-09-03T23:31:38.583Z,16.10
2022-09-03T23:34:06.050Z,16.10
2022-09-03T23:40:00.966Z,16.00
2022-09-03T23:43:01.067Z,16.00
2022-09-03T23:45:39.497Z,16.00
2022-09-03T23:48:09.230Z,16.00
2022-09-03T23:50:50.436Z,16.00
2022-09-03T23:53:41.344Z,15.90
2022-09-03T23:56:23.193Z,15.80
2022-09-03T23:59:11.585Z,15.70
